Annapolis, Maryland
Current Conditions -  °F | °C
As of 1:54 PM on Tuesday 27 Jan 2015 (Local Time) from KNAK Reporting Station
Few Clouds Few Clouds  
Wind Chill: 26°   Ceiling: Unl
Heat Index: 35°   Visibility: 10mi
Dew Point: 22°   Wind: 15mph
Humidity: 59%   Direction: 310°NW
Pressure: 29.76"   Gusts: NA
Location:  38.98°N, 76.49°W
Report Text: KNAK 271854Z AUTO 31013KT 10SM FEW047 02/M06 A2976 RMK AO2 SLP080 T00171056
Loading
Personal Weather Stations






























Interactive Weather Map New forecast layout! Learn more

10-Day Weather Forecast

Advertisements
Track Severe Weather on mobile